createdAt,value
2019-05-02T00:01:31.359Z,2.98
2019-05-02T00:04:04.804Z,2.70
2019-05-02T00:06:42.935Z,2.33
2019-05-02T00:09:13.150Z,2.70
2019-05-02T00:11:58.240Z,3.12
2019-05-02T00:14:21.913Z,3.17
2019-05-02T00:16:55.372Z,3.10
2019-05-02T00:19:28.732Z,3.15
2019-05-02T00:22:02.096Z,3.12
2019-05-02T00:24:39.387Z,2.90
2019-05-02T00:27:10.449Z,3.77
2019-05-02T00:29:43.838Z,3.80
2019-05-02T00:32:22.467Z,3.92
2019-05-02T00:34:53.924Z,4.20
2019-05-02T00:37:29.066Z,3.80
2019-05-02T00:40:03.701Z,4.93
2019-05-02T00:42:37.171Z,4.15
2019-05-02T00:45:10.476Z,4.10
2019-05-02T00:47:47.850Z,4.25
2019-05-02T00:50:19.912Z,4.25
2019-05-02T00:52:53.254Z,4.45
2019-05-02T00:55:28.971Z,5.05
2019-05-02T00:58:01.638Z,4.30
2019-05-02T01:00:35.144Z,5.50
2019-05-02T01:03:11.234Z,4.90
2019-05-02T01:05:43.677Z,4.80
2019-05-02T01:08:17.317Z,5.08
2019-05-02T01:10:52.183Z,4.80
2019-05-02T01:13:26.470Z,5.20
2019-05-02T01:15:59.894Z,4.83
2019-05-02T01:18:37.279Z,4.20
2019-05-02T01:21:08.473Z,5.00
2019-05-02T01:23:43.377Z,4.95
2019-05-02T01:26:16.932Z,5.30
2019-05-02T01:28:54.385Z,4.45
2019-05-02T01:31:27.163Z,4.50
2019-05-02T01:34:00.525Z,6.12
2019-05-02T01:36:36.711Z,4.97
2019-05-02T01:39:08.929Z,5.37
2019-05-02T01:41:42.280Z,4.62
2019-05-02T01:44:15.589Z,5.47
2019-05-02T01:46:49.180Z,4.58
2019-05-02T01:49:23.176Z,5.40
2019-05-02T01:51:56.665Z,4.80
2019-05-02T01:54:29.985Z,5.10
2019-05-02T01:57:03.950Z,4.50
2019-05-02T01:59:39.535Z,4.83
2019-05-02T02:02:12.938Z,4.87
2019-05-02T02:04:47.333Z,5.83
2019-05-02T02:07:21.247Z,5.08
2019-05-02T02:09:55.371Z,5.50
2019-05-02T02:12:29.777Z,4.80
2019-05-02T02:15:04.270Z,6.05
2019-05-02T02:17:37.820Z,5.28
2019-05-02T02:20:14.018Z,6.12
2019-05-02T02:22:46.204Z,5.70
2019-05-02T02:25:24.655Z,6.97
2019-05-02T02:27:59.719Z,6.40
2019-05-02T02:30:34.343Z,6.60
2019-05-02T02:33:09.446Z,6.20
2019-05-02T02:35:49.806Z,6.62
2019-05-02T02:38:17.861Z,7.33
2019-05-02T02:40:51.237Z,6.80
2019-05-02T02:43:34.338Z,8.03
2019-05-02T02:46:00.892Z,7.70
2019-05-02T02:48:40.490Z,8.53
2019-05-02T02:51:09.232Z,7.85
2019-05-02T02:53:42.599Z,9.05
2019-05-02T02:56:16.066Z,8.15
2019-05-02T02:58:49.604Z,8.93
2019-05-02T03:01:29.101Z,8.18
2019-05-02T03:04:01.949Z,10.28
2019-05-02T03:06:38.460Z,8.38
2019-05-02T03:09:10.031Z,7.28
2019-05-02T03:11:43.325Z,8.40
2019-05-02T03:14:16.686Z,10.50
2019-05-02T03:16:51.079Z,8.08
2019-05-02T03:19:25.540Z,8.60
2019-05-02T03:22:03.754Z,8.03
2019-05-02T03:24:43.160Z,10.53
2019-05-02T03:27:11.470Z,9.28
2019-05-02T03:29:46.634Z,10.35
2019-05-02T03:32:31.904Z,9.00
2019-05-02T03:34:54.964Z,8.53
2019-05-02T03:37:28.265Z,8.00
2019-05-02T03:40:01.844Z,10.18
2019-05-02T03:42:43.700Z,8.70
2019-05-02T03:45:10.195Z,8.45
2019-05-02T03:47:46.478Z,8.50
2019-05-02T03:50:31.286Z,8.20
2019-05-02T03:52:53.547Z,8.13
2019-05-02T03:55:30.867Z,7.20
2019-05-02T03:58:13.470Z,8.28
2019-05-02T04:00:38.632Z,7.65
2019-05-02T04:03:12.140Z,7.25
2019-05-02T04:05:46.923Z,7.42
2019-05-02T04:08:22.749Z,8.60
2019-05-02T04:11:14.550Z,7.58
2019-05-02T04:13:48.216Z,8.03
2019-05-02T04:16:21.849Z,8.30
2019-05-02T04:18:57.849Z,9.10
2019-05-02T04:21:30.213Z,8.23
2019-05-02T04:24:12.935Z,9.13
2019-05-02T04:26:39.437Z,7.83
2019-05-02T04:29:12.784Z,7.55
2019-05-02T04:31:46.490Z,7.90
2019-05-02T04:34:19.802Z,6.95
2019-05-02T04:37:01.299Z,7.40
2019-05-02T04:39:29.627Z,7.62
2019-05-02T04:42:05.189Z,8.98
2019-05-02T04:44:44.595Z,7.42
2019-05-02T04:47:17.460Z,8.65
2019-05-02T04:49:51.987Z,9.18
2019-05-02T04:52:24.735Z,9.18
2019-05-02T04:55:11.257Z,8.85
2019-05-02T04:57:36.846Z,8.30
2019-05-02T05:00:11.770Z,8.93
2019-05-02T05:02:44.805Z,10.82
2019-05-02T05:05:25.676Z,8.55
2019-05-02T05:07:54.093Z,11.33
2019-05-02T05:10:27.862Z,7.97
2019-05-02T05:13:01.962Z,11.80
2019-05-02T05:15:44.832Z,10.43
2019-05-02T05:18:14.381Z,11.08
2019-05-02T05:20:52.748Z,10.40
2019-05-02T05:23:21.642Z,11.22
2019-05-02T05:26:02.934Z,9.18
2019-05-02T05:28:35.138Z,10.05
2019-05-02T05:31:08.259Z,11.88
2019-05-02T05:33:42.162Z,11.40
2019-05-02T05:36:19.794Z,12.07
2019-05-02T05:38:51.312Z,12.88
2019-05-02T05:41:24.709Z,11.43
2019-05-02T05:43:58.315Z,10.10
2019-05-02T05:46:33.518Z,12.78
2019-05-02T05:49:12.453Z,10.72
2019-05-02T05:51:43.411Z,11.63
2019-05-02T05:54:17.818Z,12.53
2019-05-02T05:56:51.502Z,14.68
2019-05-02T05:59:28.023Z,13.03
2019-05-02T06:02:00.376Z,12.00
2019-05-02T06:04:33.743Z,8.73
2019-05-02T06:07:07.387Z,11.80
2019-05-02T06:09:41.816Z,14.47
2019-05-02T06:12:15.265Z,12.65
2019-05-02T06:14:48.896Z,11.75
2019-05-02T06:17:28.523Z,12.53
2019-05-02T06:19:58.981Z,13.58
2019-05-02T06:22:32.664Z,10.72
2019-05-02T06:25:09.406Z,13.78
2019-05-02T06:27:42.146Z,11.18
2019-05-02T06:30:16.627Z,16.10
2019-05-02T06:32:54.792Z,12.20
2019-05-02T06:35:25.395Z,14.38
2019-05-02T06:37:58.765Z,10.82
2019-05-02T06:40:32.147Z,15.80
2019-05-02T06:43:09.579Z,11.30
2019-05-02T06:45:40.573Z,14.98
2019-05-02T06:48:17.635Z,14.05
2019-05-02T06:50:49.182Z,10.88
2019-05-02T06:53:22.585Z,11.05
2019-05-02T06:55:57.740Z,11.08
2019-05-02T06:58:37.168Z,13.58
2019-05-02T07:01:07.793Z,13.03
2019-05-02T07:03:45.908Z,14.95
2019-05-02T07:06:16.459Z,14.63
2019-05-02T07:08:49.900Z,17.20
2019-05-02T07:11:23.214Z,14.43
2019-05-02T07:13:56.586Z,15.08
2019-05-02T07:16:38.095Z,13.18
2019-05-02T07:19:05.054Z,16.70
2019-05-02T07:21:38.383Z,11.70
2019-05-02T07:24:11.736Z,10.38
2019-05-02T07:26:46.133Z,10.30
2019-05-02T07:29:21.915Z,13.30
2019-05-02T07:31:54.908Z,9.85
2019-05-02T07:34:28.287Z,11.90
2019-05-02T07:37:01.842Z,12.37
2019-05-02T07:39:36.063Z,11.85
2019-05-02T07:42:10.583Z,10.45
2019-05-02T07:44:44.248Z,10.05
2019-05-02T07:47:17.749Z,11.43
2019-05-02T07:49:51.368Z,12.13
2019-05-02T07:52:28.875Z,10.32
2019-05-02T07:55:01.210Z,12.45
2019-05-02T07:57:35.087Z,11.97
2019-05-02T08:00:12.202Z,9.60
2019-05-02T08:02:45.543Z,8.50
2019-05-02T08:05:21.680Z,9.23
2019-05-02T08:07:55.263Z,9.15
2019-05-02T08:10:28.847Z,10.72
2019-05-02T08:13:02.183Z,7.78
2019-05-02T08:15:35.569Z,9.40
2019-05-02T08:18:08.977Z,10.95
2019-05-02T08:20:42.294Z,11.10
2019-05-02T08:23:20.611Z,10.00
2019-05-02T08:25:50.921Z,9.25
2019-05-02T08:28:24.514Z,10.28
2019-05-02T08:30:58.455Z,9.68
2019-05-02T08:33:34.597Z,12.65
2019-05-02T08:36:07.252Z,10.88
2019-05-02T08:38:40.629Z,9.63
2019-05-02T08:41:19.978Z,11.97
2019-05-02T08:43:51.351Z,9.00
2019-05-02T08:46:24.662Z,8.60
2019-05-02T08:48:59.521Z,10.08
2019-05-02T08:51:33.089Z,12.13
2019-05-02T08:54:06.685Z,10.63
2019-05-02T08:56:39.992Z,13.90
2019-05-02T08:59:13.356Z,11.28
2019-05-02T09:01:49.490Z,13.95
2019-05-02T09:04:24.083Z,12.45
2019-05-02T09:06:58.865Z,13.90
2019-05-02T09:09:32.213Z,11.25
2019-05-02T09:12:12.232Z,14.05
2019-05-02T09:14:42.533Z,11.48
2019-05-02T09:17:16.679Z,14.18
2019-05-02T09:20:00.282Z,10.72
2019-05-02T09:22:25.265Z,11.63
2019-05-02T09:24:58.811Z,11.63
2019-05-02T09:27:32.156Z,12.37
2019-05-02T09:30:12.090Z,10.78
2019-05-02T09:32:45.030Z,12.78
2019-05-02T09:35:18.456Z,11.25
2019-05-02T09:37:52.331Z,11.05
2019-05-02T09:40:25.965Z,10.72
2019-05-02T09:43:02.110Z,11.22
2019-05-02T09:45:37.871Z,13.53
2019-05-02T09:48:12.701Z,13.40
2019-05-02T09:50:46.919Z,13.35
2019-05-02T09:53:25.249Z,12.85
2019-05-02T09:55:57.940Z,13.22
2019-05-02T09:58:32.033Z,11.90
2019-05-02T10:01:05.838Z,12.95
2019-05-02T10:03:39.211Z,12.60
2019-05-02T10:06:17.916Z,13.50
2019-05-02T10:08:47.861Z,14.55
2019-05-02T10:11:26.081Z,14.95
2019-05-02T10:13:57.425Z,16.80
2019-05-02T10:16:31.932Z,16.25
2019-05-02T10:19:09.531Z,15.43
2019-05-02T10:21:42.194Z,18.02
2019-05-02T10:24:15.619Z,16.10
2019-05-02T10:26:49.304Z,16.15
2019-05-02T10:29:28.132Z,15.90
2019-05-02T10:31:57.785Z,17.07
2019-05-02T10:34:32.998Z,17.90
2019-05-02T10:37:06.258Z,17.02
2019-05-02T10:39:39.754Z,18.40
2019-05-02T10:42:13.232Z,18.45
2019-05-02T10:44:46.763Z,18.05
2019-05-02T10:47:22.143Z,16.27
2019-05-02T10:49:55.811Z,16.82
2019-05-02T10:52:30.092Z,18.82
2019-05-02T10:55:06.105Z,18.07
2019-05-02T10:57:39.691Z,16.27
2019-05-02T11:00:15.202Z,15.80
2019-05-02T11:02:48.801Z,17.42
2019-05-02T11:05:26.283Z,20.77
2019-05-02T11:08:04.821Z,18.65
2019-05-02T11:10:32.411Z,18.20
2019-05-02T11:13:05.814Z,18.20
2019-05-02T11:15:39.149Z,17.67
2019-05-02T11:18:12.720Z,16.20
2019-05-02T11:20:46.141Z,15.40
2019-05-02T11:23:19.482Z,16.77
2019-05-02T11:25:52.904Z,16.87
2019-05-02T11:28:26.474Z,18.20
2019-05-02T11:31:04.968Z,16.15
2019-05-02T11:33:35.551Z,17.02
2019-05-02T11:36:08.842Z,16.97
2019-05-02T11:38:45.513Z,16.07
2019-05-02T11:41:17.226Z,17.85
2019-05-02T11:43:54.116Z,18.12
2019-05-02T11:46:25.817Z,15.88
2019-05-02T11:49:02.401Z,16.57
2019-05-02T11:51:36.276Z,16.35
2019-05-02T11:54:09.689Z,15.80
2019-05-02T11:56:48.918Z,14.75
2019-05-02T11:59:22.633Z,12.68
2019-05-02T12:01:59.726Z,12.95
2019-05-02T12:04:28.170Z,12.50
2019-05-02T12:07:04.947Z,11.15
2019-05-02T12:09:37.109Z,12.65
2019-05-02T12:12:12.362Z,11.88
2019-05-02T12:14:45.922Z,12.40
2019-05-02T12:17:21.777Z,11.20
2019-05-02T12:19:55.278Z,11.05
2019-05-02T12:22:29.147Z,11.08
2019-05-02T12:25:03.057Z,10.00
2019-05-02T12:27:36.685Z,10.10
2019-05-02T12:30:11.800Z,9.53
2019-05-02T12:32:45.586Z,10.13
2019-05-02T12:35:19.000Z,9.18
2019-05-02T12:37:55.357Z,8.80
2019-05-02T12:40:28.840Z,8.43
2019-05-02T12:43:02.864Z,7.58
2019-05-02T12:45:36.350Z,8.15
2019-05-02T12:48:12.908Z,7.45
2019-05-02T12:50:45.950Z,7.75
2019-05-02T12:53:21.785Z,7.33
2019-05-02T12:55:54.731Z,8.23
2019-05-02T12:58:28.151Z,7.22
2019-05-02T13:01:02.827Z,6.25
2019-05-02T13:03:36.832Z,7.10
2019-05-02T13:06:12.371Z,6.55
2019-05-02T13:08:45.889Z,6.83
2019-05-02T13:11:22.274Z,5.45
2019-05-02T13:13:55.729Z,5.35
2019-05-02T13:16:29.177Z,5.20
2019-05-02T13:19:06.067Z,5.03
2019-05-02T13:21:42.215Z,4.42
2019-05-02T13:24:16.299Z,5.00
2019-05-02T13:26:53.923Z,4.87
2019-05-02T13:29:23.557Z,4.50
2019-05-02T13:31:57.010Z,4.20
2019-05-02T13:34:31.975Z,4.70
2019-05-02T13:37:05.564Z,5.53
2019-05-02T13:39:38.888Z,4.67
2019-05-02T13:42:12.599Z,4.33
2019-05-02T13:44:45.929Z,4.67
2019-05-02T13:47:19.228Z,5.28
2019-05-02T13:49:56.389Z,5.17
2019-05-02T13:52:27.794Z,6.75
2019-05-02T13:55:01.787Z,4.70
2019-05-02T13:57:41.907Z,5.75
2019-05-02T14:00:10.327Z,5.67
2019-05-02T14:02:43.857Z,4.90
2019-05-02T14:05:18.791Z,6.22
2019-05-02T14:07:57.004Z,5.67
2019-05-02T14:10:32.201Z,5.47
2019-05-02T14:13:03.373Z,5.67
2019-05-02T14:15:37.214Z,6.00
2019-05-02T14:18:12.396Z,6.42
2019-05-02T14:20:46.826Z,6.47
2019-05-02T14:23:22.160Z,5.53
2019-05-02T14:25:57.123Z,5.75
2019-05-02T14:28:32.263Z,5.35
2019-05-02T14:31:05.638Z,5.60
2019-05-02T14:33:39.018Z,4.70
2019-05-02T14:36:12.653Z,4.67
2019-05-02T14:38:46.016Z,4.62
2019-05-02T14:41:21.803Z,4.95
2019-05-02T14:43:55.334Z,4.60
2019-05-02T14:46:33.694Z,4.92
2019-05-02T14:49:03.670Z,4.83
2019-05-02T14:51:38.566Z,5.33
2019-05-02T14:54:12.126Z,4.60
2019-05-02T14:56:47.714Z,4.80
2019-05-02T14:59:22.600Z,4.90
2019-05-02T15:01:58.009Z,4.08
2019-05-02T15:04:32.236Z,6.42
2019-05-02T15:07:05.625Z,5.80
2019-05-02T15:09:39.300Z,4.33
2019-05-02T15:12:15.987Z,4.00
2019-05-02T15:14:49.799Z,4.87
2019-05-02T15:17:22.822Z,4.72
2019-05-02T15:19:56.162Z,4.50
2019-05-02T15:22:35.781Z,4.62
2019-05-02T15:25:07.938Z,4.70
2019-05-02T15:27:43.065Z,4.12
2019-05-02T15:30:16.536Z,3.50
2019-05-02T15:32:49.837Z,3.22
2019-05-02T15:35:26.846Z,3.37
2019-05-02T15:38:05.157Z,3.55
2019-05-02T15:40:47.329Z,3.52
2019-05-02T15:43:12.468Z,3.05
2019-05-02T15:45:48.006Z,2.75
2019-05-02T15:48:27.053Z,3.45
2019-05-02T15:51:00.252Z,2.90
2019-05-02T15:53:32.477Z,2.42
2019-05-02T15:56:15.770Z,2.52
2019-05-02T15:58:42.605Z,2.60
2019-05-02T16:01:17.048Z,2.30
2019-05-02T16:03:52.130Z,1.95
2019-05-02T16:06:30.798Z,2.22
2019-05-02T16:09:02.441Z,1.77
2019-05-02T16:11:37.685Z,2.12
2019-05-02T16:14:12.782Z,2.00
2019-05-02T16:16:46.231Z,2.10
2019-05-02T16:19:24.850Z,1.50
2019-05-02T16:21:54.920Z,1.75
2019-05-02T16:24:28.441Z,1.90
2019-05-02T16:27:02.641Z,1.87
2019-05-02T16:29:36.136Z,1.62
2019-05-02T16:32:09.451Z,1.05
2019-05-02T16:34:43.512Z,1.60
2019-05-02T16:37:16.937Z,1.20
2019-05-02T16:39:51.221Z,1.30
2019-05-02T16:42:24.555Z,1.30
2019-05-02T16:44:57.902Z,1.42
2019-05-02T16:47:32.588Z,1.45
2019-05-02T16:50:07.448Z,1.25
2019-05-02T16:52:43.711Z,0.93
2019-05-02T16:55:21.006Z,1.10
2019-05-02T16:57:56.697Z,1.50
2019-05-02T17:00:28.208Z,1.50
2019-05-02T17:03:02.012Z,2.25
2019-05-02T17:05:39.294Z,2.10
2019-05-02T17:08:18.659Z,1.85
2019-05-02T17:10:47.197Z,1.70
2019-05-02T17:13:21.793Z,1.80
2019-05-02T17:15:55.439Z,2.05
2019-05-02T17:18:28.742Z,2.53
2019-05-02T17:21:02.306Z,2.27
2019-05-02T17:23:37.474Z,3.65
2019-05-02T17:26:12.286Z,4.53
2019-05-02T17:28:47.369Z,4.45
2019-05-02T17:31:23.035Z,5.37
2019-05-02T17:33:56.535Z,5.17
2019-05-02T17:36:30.635Z,5.30
2019-05-02T17:39:08.326Z,4.97
2019-05-02T17:41:45.658Z,5.17
2019-05-02T17:44:22.132Z,4.22
2019-05-02T17:46:58.444Z,4.15
2019-05-02T17:49:31.835Z,4.63
2019-05-02T17:52:05.752Z,4.45
2019-05-02T17:54:39.392Z,6.37
2019-05-02T17:57:12.729Z,5.20
2019-05-02T17:59:46.104Z,7.37
2019-05-02T18:02:19.726Z,8.45
2019-05-02T18:04:55.781Z,9.40
2019-05-02T18:07:32.142Z,8.98
2019-05-02T18:10:16.817Z,10.55
2019-05-02T18:12:42.935Z,11.73
2019-05-02T18:15:16.357Z,11.88
2019-05-02T18:17:49.713Z,10.13
2019-05-02T18:20:25.322Z,10.05
2019-05-02T18:23:00.009Z,9.60
2019-05-02T18:25:33.349Z,9.03
2019-05-02T18:28:06.727Z,9.53
2019-05-02T18:30:41.752Z,8.48
2019-05-02T18:33:15.348Z,7.67
2019-05-02T18:35:50.279Z,7.80
2019-05-02T18:38:24.625Z,7.47
2019-05-02T18:41:00.251Z,6.80
2019-05-02T18:43:40.884Z,6.78
2019-05-02T18:46:12.765Z,5.78
2019-05-02T18:48:49.131Z,5.85
2019-05-02T18:51:21.839Z,5.20
2019-05-02T18:53:58.030Z,4.72
2019-05-02T18:56:34.012Z,4.65
2019-05-02T18:59:05.905Z,4.60
2019-05-02T19:01:39.293Z,4.53
2019-05-02T19:04:13.206Z,3.85
2019-05-02T19:06:46.683Z,3.60
2019-05-02T19:09:24.989Z,3.10
2019-05-02T19:12:04.980Z,2.45
2019-05-02T19:14:30.160Z,2.75
2019-05-02T19:17:07.180Z,2.83
2019-05-02T19:19:38.515Z,2.70
2019-05-02T19:22:13.255Z,2.20
2019-05-02T19:24:46.896Z,2.37
2019-05-02T19:27:20.999Z,2.33
2019-05-02T19:29:54.840Z,2.30
2019-05-02T19:32:28.547Z,2.27
2019-05-02T19:35:06.962Z,2.20
2019-05-02T19:37:46.032Z,1.75
2019-05-02T19:40:14.896Z,2.35
2019-05-02T19:42:48.385Z,2.10
2019-05-02T19:45:21.894Z,2.00
2019-05-02T19:47:57.657Z,2.05
2019-05-02T19:50:39.305Z,1.72
2019-05-02T19:53:14.903Z,1.70
2019-05-02T19:55:44.292Z,1.75
2019-05-02T19:58:17.665Z,1.77
2019-05-02T20:00:52.609Z,1.40
2019-05-02T20:03:26.328Z,1.45
2019-05-02T20:06:02.287Z,1.90
2019-05-02T20:08:35.562Z,1.47
2019-05-02T20:11:10.014Z,1.17
2019-05-02T20:13:44.827Z,1.40
2019-05-02T20:16:22.490Z,1.60
2019-05-02T20:18:55.986Z,1.55
2019-05-02T20:21:29.352Z,1.42
2019-05-02T20:24:04.296Z,1.47
2019-05-02T20:26:39.343Z,1.30
2019-05-02T20:29:12.740Z,1.05
2019-05-02T20:31:46.063Z,1.05
2019-05-02T20:34:19.845Z,1.07
2019-05-02T20:36:53.172Z,1.00
2019-05-02T20:39:26.355Z,1.20
2019-05-02T20:41:59.688Z,1.15
2019-05-02T20:44:33.053Z,0.80
2019-05-02T20:47:06.394Z,1.15
2019-05-02T20:49:39.770Z,1.47
2019-05-02T20:52:13.114Z,1.10
2019-05-02T20:54:47.141Z,1.30
2019-05-02T20:57:21.496Z,1.07
2019-05-02T20:59:55.166Z,1.17
2019-05-02T21:02:28.509Z,1.20
2019-05-02T21:05:02.736Z,1.45
2019-05-02T21:07:36.258Z,1.20
2019-05-02T21:10:09.673Z,1.30
2019-05-02T21:12:43.048Z,1.30
2019-05-02T21:15:18.221Z,1.07
2019-05-02T21:17:51.454Z,0.93
2019-05-02T21:20:25.020Z,1.30
2019-05-02T21:22:58.353Z,1.35
2019-05-02T21:25:32.554Z,0.98
2019-05-02T21:28:06.355Z,1.10
2019-05-02T21:30:41.563Z,0.88
2019-05-02T21:33:35.559Z,1.00
2019-05-02T21:36:08.917Z,0.75
2019-05-02T21:38:42.888Z,0.95
2019-05-02T21:41:16.555Z,1.20
2019-05-02T21:43:51.694Z,1.07
2019-05-02T21:46:25.175Z,0.82
2019-05-02T21:48:58.569Z,1.07
2019-05-02T21:51:32.056Z,0.70
2019-05-02T21:54:05.683Z,1.12
2019-05-02T21:56:39.033Z,0.80
2019-05-02T21:59:12.489Z,1.20
2019-05-02T22:01:46.417Z,1.02
2019-05-02T22:04:19.779Z,1.37
2019-05-02T22:06:53.200Z,0.88
2019-05-02T22:09:26.742Z,1.50
2019-05-02T22:12:00.567Z,1.02
2019-05-02T22:14:33.921Z,1.00
2019-05-02T22:17:08.917Z,1.10
2019-05-02T22:19:42.987Z,0.90
2019-05-02T22:22:16.340Z,1.50
2019-05-02T22:24:52.665Z,1.40
2019-05-02T22:27:25.679Z,1.27
2019-05-02T22:29:59.065Z,1.27
2019-05-02T22:32:32.502Z,1.40
2019-05-02T22:35:06.216Z,1.45
2019-05-02T22:37:39.693Z,1.20
2019-05-02T22:40:14.211Z,0.98
2019-05-02T22:42:47.669Z,1.10
2019-05-02T22:45:21.773Z,1.22
2019-05-02T22:47:55.486Z,1.30
2019-05-02T22:50:28.866Z,1.20
2019-05-02T22:53:02.411Z,1.35
2019-05-02T22:55:36.066Z,1.10
2019-05-02T22:58:11.085Z,1.35
2019-05-02T23:00:44.535Z,1.20
2019-05-02T23:03:17.911Z,1.00
2019-05-02T23:05:52.629Z,1.05
2019-05-02T23:08:26.275Z,1.02
2019-05-02T23:10:59.643Z,1.00
2019-05-02T23:13:32.981Z,1.47
2019-05-02T23:16:06.516Z,1.37
2019-05-02T23:18:39.908Z,1.37
2019-05-02T23:21:13.270Z,0.90
2019-05-02T23:23:47.365Z,1.12
2019-05-02T23:26:22.431Z,1.47
2019-05-02T23:28:56.041Z,1.20
2019-05-02T23:31:29.396Z,1.02
2019-05-02T23:34:02.736Z,1.25
2019-05-02T23:36:36.117Z,1.37
2019-05-02T23:39:09.500Z,1.20
2019-05-02T23:41:42.884Z,0.88
2019-05-02T23:44:16.213Z,1.10
2019-05-02T23:46:51.510Z,1.65
2019-05-02T23:49:24.775Z,1.10
2019-05-02T23:51:59.106Z,1.20
2019-05-02T23:54:32.560Z,1.17
2019-05-02T23:57:06.021Z,1.12
2019-05-02T23:59:39.372Z,1.20
